createdAt,value
2023-02-06T00:02:46.170Z,24.07
2023-02-06T00:07:48.029Z,24.00
2023-02-06T00:12:49.743Z,23.60
2023-02-06T00:17:51.329Z,23.50
2023-02-06T00:22:52.969Z,24.20
2023-02-06T00:27:54.649Z,24.07
2023-02-06T00:32:56.320Z,23.57
2023-02-06T00:37:59.789Z,23.00
2023-02-06T00:43:02.448Z,21.57
2023-02-06T00:48:04.194Z,21.10
2023-02-06T00:53:05.893Z,19.73
2023-02-06T00:58:07.568Z,20.77
2023-02-06T01:03:09.208Z,20.43
2023-02-06T01:08:10.908Z,21.77
2023-02-06T01:13:12.903Z,21.73
2023-02-06T01:18:15.991Z,21.40
2023-02-06T01:23:17.623Z,23.27
2023-02-06T01:28:19.265Z,20.43
2023-02-06T01:33:21.715Z,20.10
2023-02-06T01:38:23.339Z,21.87
2023-02-06T01:43:29.118Z,21.83
2023-02-06T01:48:37.901Z,20.87
2023-02-06T01:53:42.458Z,20.83
2023-02-06T01:58:47.783Z,21.17
2023-02-06T02:03:52.573Z,20.23
2023-02-06T02:08:58.468Z,21.70
2023-02-06T02:14:03.433Z,20.40
2023-02-06T02:19:23.854Z,19.23
2023-02-06T02:24:32.685Z,19.03
2023-02-06T02:30:05.814Z,18.83
2023-02-06T02:35:46.145Z,20.03
2023-02-06T02:40:51.663Z,19.90
2023-02-06T02:46:08.882Z,19.27
2023-02-06T02:51:11.609Z,19.60
2023-02-06T02:56:19.617Z,18.70
2023-02-06T03:01:29.193Z,19.83
2023-02-06T03:06:44.112Z,19.60
2023-02-06T03:11:55.908Z,18.57
2023-02-06T03:17:10.436Z,18.33
2023-02-06T03:22:14.929Z,19.47
2023-02-06T03:27:17.700Z,18.73
2023-02-06T03:32:29.739Z,18.93
2023-02-06T03:37:32.432Z,18.80
2023-02-06T03:42:38.981Z,20.30
2023-02-06T03:47:43.094Z,18.93
2023-02-06T03:52:48.696Z,19.67
2023-02-06T03:57:55.112Z,21.00
2023-02-06T04:02:57.490Z,19.03
2023-02-06T04:07:59.116Z,20.80
2023-02-06T04:13:00.732Z,18.27
2023-02-06T04:18:02.822Z,19.33
2023-02-06T04:23:05.031Z,19.40
2023-02-06T04:28:06.726Z,19.33
2023-02-06T04:33:08.404Z,19.60
2023-02-06T04:38:10.033Z,18.97
2023-02-06T04:43:11.719Z,18.13
2023-02-06T04:48:13.318Z,19.37
2023-02-06T04:53:14.974Z,19.70
2023-02-06T04:58:16.683Z,20.47
2023-02-06T05:03:18.303Z,19.70
2023-02-06T05:08:19.931Z,19.37
2023-02-06T05:13:21.986Z,20.73
2023-02-06T05:18:24.342Z,22.10
2023-02-06T05:23:25.989Z,20.47
2023-02-06T05:28:29.961Z,19.47
2023-02-06T05:33:31.833Z,20.93
2023-02-06T05:38:34.213Z,22.97
2023-02-06T05:43:36.170Z,22.90
2023-02-06T05:48:38.565Z,22.03
2023-02-06T05:53:40.231Z,21.10
2023-02-06T05:58:41.823Z,23.97
2023-02-06T06:03:43.541Z,22.83
2023-02-06T06:08:45.185Z,21.83
2023-02-06T06:13:46.781Z,22.37
2023-02-06T06:18:48.404Z,22.40
2023-02-06T06:23:50.114Z,23.93
2023-02-06T06:28:51.870Z,23.63
2023-02-06T06:33:54.231Z,22.53
2023-02-06T06:38:55.972Z,21.07
2023-02-06T06:43:58.601Z,23.03
2023-02-06T06:49:01.429Z,25.10
2023-02-06T06:54:03.215Z,23.23
2023-02-06T06:59:04.829Z,23.07
2023-02-06T07:04:06.473Z,22.80
2023-02-06T07:09:08.111Z,23.37
2023-02-06T07:14:09.761Z,24.37
2023-02-06T07:19:11.458Z,23.83
2023-02-06T07:24:13.052Z,23.43
2023-02-06T07:29:14.729Z,24.47
2023-02-06T07:34:16.929Z,22.60
2023-02-06T07:39:18.606Z,23.53
2023-02-06T07:44:20.265Z,24.53
2023-02-06T07:49:21.850Z,25.07
2023-02-06T07:54:23.505Z,24.27
2023-02-06T07:59:25.645Z,25.00
2023-02-06T08:04:29.462Z,23.47
2023-02-06T08:09:31.226Z,25.50
2023-02-06T08:14:32.996Z,25.67
2023-02-06T08:19:34.603Z,25.93
2023-02-06T08:24:36.232Z,25.93
2023-02-06T08:29:42.391Z,26.87
2023-02-06T08:34:44.543Z,27.80
2023-02-06T08:39:46.158Z,27.20
2023-02-06T08:44:48.085Z,27.23
2023-02-06T08:49:50.999Z,26.53
2023-02-06T08:54:52.956Z,26.87
2023-02-06T08:59:54.560Z,28.50
2023-02-06T09:04:56.171Z,29.10
2023-02-06T09:09:57.842Z,29.60
2023-02-06T09:14:59.497Z,27.07
2023-02-06T09:20:01.886Z,27.67
2023-02-06T09:25:03.643Z,30.63
2023-02-06T09:30:05.907Z,28.33
2023-02-06T09:35:07.789Z,29.97
2023-02-06T09:40:12.665Z,28.80
2023-02-06T09:45:18.735Z,29.67
2023-02-06T09:50:27.671Z,29.37
2023-02-06T09:55:48.376Z,30.80
2023-02-06T10:01:14.209Z,30.23
2023-02-06T10:06:23.887Z,30.90
2023-02-06T10:11:48.338Z,29.47
2023-02-06T10:16:58.405Z,31.30
2023-02-06T10:22:38.972Z,29.77
2023-02-06T10:27:44.129Z,28.30
2023-02-06T10:33:31.440Z,30.43
2023-02-06T10:39:23.850Z,30.17
2023-02-06T10:44:50.831Z,29.50
2023-02-06T10:50:01.911Z,27.30
2023-02-06T10:55:16.176Z,29.80
2023-02-06T11:00:25.064Z,29.57
2023-02-06T11:05:29.492Z,27.37
2023-02-06T11:10:32.265Z,25.20
2023-02-06T11:15:58.789Z,23.70
2023-02-06T11:21:00.965Z,22.43
2023-02-06T11:26:15.750Z,23.43
2023-02-06T11:31:19.856Z,21.70
2023-02-06T11:36:37.198Z,20.80
2023-02-06T11:41:38.933Z,20.70
2023-02-06T11:46:40.852Z,22.87
2023-02-06T11:51:51.555Z,19.73
2023-02-06T11:57:03.277Z,19.13
2023-02-06T12:02:27.039Z,19.13
2023-02-06T12:07:41.647Z,18.60
2023-02-06T12:12:49.746Z,17.85
2023-02-06T12:18:03.980Z,18.23
2023-02-06T12:23:15.568Z,18.63
2023-02-06T12:28:39.487Z,16.67
2023-02-06T12:33:47.858Z,16.60
2023-02-06T12:39:07.536Z,16.93
2023-02-06T12:44:24.501Z,16.23
2023-02-06T12:49:49.074Z,16.53
2023-02-06T12:54:58.651Z,17.53
2023-02-06T13:00:34.354Z,15.37
2023-02-06T13:05:49.227Z,16.53
2023-02-06T13:11:04.938Z,17.73
2023-02-06T13:16:07.727Z,16.60
2023-02-06T13:21:32.686Z,16.57
2023-02-06T13:26:43.354Z,17.90
2023-02-06T13:31:44.979Z,17.53
2023-02-06T13:36:52.290Z,17.43
2023-02-06T13:41:54.654Z,16.37
2023-02-06T13:47:11.704Z,16.75
2023-02-06T13:52:31.683Z,15.97
2023-02-06T13:58:14.716Z,16.23
2023-02-06T14:03:23.887Z,16.97
2023-02-06T14:09:00.624Z,18.03
2023-02-06T14:14:21.733Z,19.57
2023-02-06T14:19:34.539Z,18.90
2023-02-06T14:25:16.518Z,17.97
2023-02-06T14:30:29.867Z,18.00
2023-02-06T14:35:47.107Z,18.67
2023-02-06T14:40:55.190Z,18.53
2023-02-06T14:46:07.429Z,20.23
2023-02-06T14:51:22.080Z,22.03
2023-02-06T14:56:36.614Z,23.93
2023-02-06T15:01:39.152Z,25.00
2023-02-06T15:06:45.016Z,25.77
2023-02-06T15:11:51.960Z,23.77
2023-02-06T15:16:56.793Z,25.17
2023-02-06T15:22:19.245Z,26.93
2023-02-06T15:27:34.074Z,27.37
2023-02-06T15:32:38.607Z,29.87
2023-02-06T15:37:40.218Z,30.00
2023-02-06T15:42:42.221Z,34.90
2023-02-06T15:47:46.061Z,34.03
2023-02-06T15:52:48.234Z,33.80
2023-02-06T15:57:50.172Z,38.83
2023-02-06T16:02:54.551Z,38.93
2023-02-06T16:07:56.982Z,40.50
2023-02-06T16:13:01.579Z,38.90
2023-02-06T16:18:25.179Z,41.73
2023-02-06T16:23:26.883Z,39.97
2023-02-06T16:28:29.408Z,41.50
2023-02-06T16:33:38.587Z,40.13
2023-02-06T16:38:40.536Z,39.97
2023-02-06T16:43:42.381Z,36.77
2023-02-06T16:48:44.010Z,34.87
2023-02-06T16:53:48.255Z,30.80
2023-02-06T16:58:50.353Z,31.73
2023-02-06T17:03:53.052Z,30.93
2023-02-06T17:08:58.289Z,30.07
2023-02-06T17:14:00.032Z,28.60
2023-02-06T17:19:01.907Z,25.60
2023-02-06T17:24:03.830Z,26.20
2023-02-06T17:29:05.741Z,26.50
2023-02-06T17:34:07.398Z,24.27
2023-02-06T17:39:12.803Z,26.60
2023-02-06T17:44:17.129Z,27.83
2023-02-06T17:49:18.842Z,29.27
2023-02-06T17:54:20.479Z,28.87
2023-02-06T17:59:22.120Z,32.13
2023-02-06T18:04:24.898Z,35.13
2023-02-06T18:09:26.565Z,37.33
2023-02-06T18:14:28.322Z,38.73
2023-02-06T18:19:30.398Z,39.63
2023-02-06T18:24:32.205Z,38.27
2023-02-06T18:29:48.996Z,38.13
2023-02-06T18:34:51.292Z,39.03
2023-02-06T18:39:55.076Z,40.53
2023-02-06T18:44:56.784Z,38.60
2023-02-06T18:49:58.408Z,41.83
2023-02-06T18:55:00.152Z,40.83
2023-02-06T19:00:02.366Z,39.80
2023-02-06T19:05:04.230Z,42.47
2023-02-06T19:10:10.078Z,40.63
2023-02-06T19:15:12.648Z,41.43
2023-02-06T19:20:14.348Z,40.40
2023-02-06T19:25:16.141Z,40.17
2023-02-06T19:30:17.800Z,40.07
2023-02-06T19:35:20.382Z,38.30
2023-02-06T19:40:22.010Z,35.93
2023-02-06T19:45:23.700Z,38.67
2023-02-06T19:50:25.358Z,39.50
2023-02-06T19:55:27.061Z,36.43
2023-02-06T20:00:29.291Z,38.37
2023-02-06T20:05:33.444Z,41.40
2023-02-06T20:10:37.793Z,37.43
2023-02-06T20:15:39.978Z,40.23
2023-02-06T20:20:41.675Z,41.40
2023-02-06T20:25:43.297Z,40.53
2023-02-06T20:30:45.024Z,40.80
2023-02-06T20:35:46.683Z,42.20
2023-02-06T20:40:51.519Z,41.60
2023-02-06T20:45:53.285Z,40.27
2023-02-06T20:50:59.579Z,44.63
2023-02-06T20:56:01.227Z,42.07
2023-02-06T21:01:11.032Z,40.50
2023-02-06T21:06:14.071Z,39.13
2023-02-06T21:11:16.364Z,43.70
2023-02-06T21:16:17.967Z,45.43
2023-02-06T21:21:20.407Z,41.07
2023-02-06T21:26:23.741Z,41.17
2023-02-06T21:31:38.163Z,41.70
2023-02-06T21:36:40.400Z,38.57
2023-02-06T21:41:42.183Z,39.17
2023-02-06T21:46:43.883Z,35.03
2023-02-06T21:51:45.539Z,34.90
2023-02-06T21:56:47.219Z,32.87
2023-02-06T22:01:48.884Z,33.03
2023-02-06T22:06:50.625Z,31.67
2023-02-06T22:11:52.339Z,33.03
2023-02-06T22:16:54.268Z,30.90
2023-02-06T22:21:55.946Z,31.30
2023-02-06T22:26:57.575Z,32.47
2023-02-06T22:32:04.364Z,30.43
2023-02-06T22:37:06.068Z,28.87
2023-02-06T22:42:07.761Z,29.17
2023-02-06T22:47:09.420Z,29.60
2023-02-06T22:52:31.115Z,30.17
2023-02-06T22:57:35.236Z,29.23
2023-02-06T23:02:38.431Z,26.53
2023-02-06T23:07:40.149Z,29.47
2023-02-06T23:12:41.768Z,27.77
2023-02-06T23:17:43.454Z,30.30
2023-02-06T23:22:45.073Z,30.50
2023-02-06T23:27:46.728Z,30.13
2023-02-06T23:32:48.766Z,29.70
2023-02-06T23:37:50.392Z,30.83
2023-02-06T23:42:52.066Z,32.53
2023-02-06T23:47:56.414Z,31.03
2023-02-06T23:52:58.115Z,32.17
2023-02-06T23:57:59.773Z,30.77
